Карточка аэропорта UAKK

Внимание!
Информация на этой странице в стадии наполнения.
Если вы не увидели какой-то информации, или заметили неточность - пожалуйста сообщите нам!
Спасибо!
Команда RU-STAFF
Название аэропортаКараганда
Название аэропорта (англ.)Karaganda
Превышение1768 ft. (538.9 m.)
Координаты49°40.302', 73°20.118'
Высота перехода10000
Эшелон переходаby ATC
Коды ответчика0630-0637, 7220-7227
Зона ОрВДАстана РПИ (UACN)
Данные METARUAKK 241600Z 05007MPS 9999 SCT049CB 12/08 Q1010 NOSIG RMK QFE710/0947
Проноз погоды (TAF)UAKK 241103Z 2412/2512 03008MPS 9999 BKN030 BKN080 TX18/2509Z TN01/2501Z TEMPO 2412/2416 35013MPS 3100 -SHRA BR BKN015 BKN030CB FM241600 35007MPS 5000 -RA BR BKN015 BKN030 TEMPO 2416/2506 03010MPS 2000 -TSRA BR BKN008 BKN015CB TEMPO 2506/2512 06013MPS 3100 -SHRA BKN015CB
NOTAMshow/hide NOTAM
AWOS   TABLE

Информация о ВПП

ВПП Длина ВПП (м.) Покрытие Курс ВПП Частота ILS
053601Железобетон50109.9
233601Железобетон230111.7

Диспетчерские позиции




Спутниковое изображение